createdAt,value
2018-05-21T00:00:54.758Z,40.96
2018-05-21T00:02:03.943Z,41.05
2018-05-21T00:03:13.948Z,40.67
2018-05-21T00:04:23.128Z,40.77
2018-05-21T00:05:32.895Z,40.96
2018-05-21T00:06:42.625Z,41.05
2018-05-21T00:07:51.281Z,40.86
2018-05-21T00:09:00.965Z,41.05
2018-05-21T00:10:10.637Z,40.86
2018-05-21T00:11:20.406Z,41.05
2018-05-21T00:12:29.325Z,41.05
2018-05-21T00:13:38.546Z,40.86
2018-05-21T00:14:47.727Z,40.77
2018-05-21T00:15:56.662Z,40.96
2018-05-21T00:17:06.173Z,41.05
2018-05-21T00:18:15.884Z,40.57
2018-05-21T00:19:25.310Z,40.77
2018-05-21T00:20:34.522Z,40.96
2018-05-21T00:21:44.214Z,41.05
2018-05-21T00:22:53.652Z,40.67
2018-05-21T00:24:02.812Z,40.77
2018-05-21T00:25:12.775Z,40.86
2018-05-21T00:26:22.209Z,40.67
2018-05-21T00:27:31.377Z,40.77
2018-05-21T00:28:41.082Z,40.67
2018-05-21T00:29:51.049Z,40.77
2018-05-21T00:31:00.746Z,40.67
2018-05-21T00:32:09.931Z,40.77
2018-05-21T00:33:19.436Z,40.77
2018-05-21T00:34:28.892Z,40.77
2018-05-21T00:35:38.565Z,40.77
2018-05-21T00:36:48.256Z,40.77
2018-05-21T00:37:57.461Z,40.77
2018-05-21T00:39:06.901Z,40.77
2018-05-21T00:40:16.417Z,40.96
2018-05-21T00:41:26.278Z,40.96
2018-05-21T00:42:35.700Z,40.96
2018-05-21T00:43:45.389Z,40.77
2018-05-21T00:44:54.584Z,40.77
2018-05-21T00:46:04.038Z,40.77
2018-05-21T00:47:13.728Z,40.77
2018-05-21T00:48:22.883Z,40.77
2018-05-21T00:49:31.832Z,40.65
2018-05-21T00:50:40.993Z,40.65
2018-05-21T00:51:50.403Z,40.57
2018-05-21T00:52:59.587Z,40.67
2018-05-21T00:54:09.009Z,40.67
2018-05-21T00:55:18.156Z,40.65
2018-05-21T00:56:27.889Z,40.55
2018-05-21T00:57:37.851Z,40.65
2018-05-21T00:58:47.309Z,40.77
2018-05-21T00:59:55.967Z,40.57
2018-05-21T01:01:05.938Z,40.67
2018-05-21T01:02:15.142Z,40.67
2018-05-21T01:03:24.331Z,40.75
2018-05-21T01:04:33.761Z,40.77
2018-05-21T01:05:42.935Z,40.67
2018-05-21T01:06:52.889Z,40.75
2018-05-21T01:08:02.320Z,40.67
2018-05-21T01:09:11.747Z,40.67
2018-05-21T01:10:21.434Z,40.67
2018-05-21T01:11:31.114Z,40.67
2018-05-21T01:12:40.529Z,40.57
2018-05-21T01:13:50.204Z,40.57
2018-05-21T01:14:59.367Z,40.55
2018-05-21T01:16:08.518Z,40.57
2018-05-21T01:17:18.246Z,40.57
2018-05-21T01:18:27.988Z,40.45
2018-05-21T01:19:37.699Z,40.67
2018-05-21T01:20:47.378Z,40.77
2018-05-21T01:21:56.856Z,40.86
2018-05-21T01:23:06.287Z,40.77
2018-05-21T01:24:15.711Z,40.77
2018-05-21T01:25:25.393Z,40.84
2018-05-21T01:26:34.835Z,40.75
2018-05-21T01:27:44.010Z,40.75
2018-05-21T01:28:53.448Z,40.67
2018-05-21T01:30:02.360Z,40.75
2018-05-21T01:31:11.546Z,40.77
2018-05-21T01:32:21.253Z,40.75
2018-05-21T01:33:30.708Z,40.26
2018-05-21T01:34:40.152Z,40.45
2018-05-21T01:35:49.593Z,40.75
2018-05-21T01:36:59.037Z,40.45
2018-05-21T01:38:08.222Z,40.47
2018-05-21T01:39:17.681Z,40.36
2018-05-21T01:40:26.581Z,40.36
2018-05-21T01:41:36.085Z,40.36
2018-05-21T01:42:45.544Z,40.36
2018-05-21T01:43:55.251Z,40.47
2018-05-21T01:45:04.164Z,40.38
2018-05-21T01:46:13.348Z,40.45
2018-05-21T01:47:22.786Z,40.45
2018-05-21T01:48:32.243Z,40.36
2018-05-21T01:49:41.677Z,40.45
2018-05-21T01:50:51.240Z,40.45
2018-05-21T01:52:01.001Z,40.36
2018-05-21T01:53:10.286Z,40.45
2018-05-21T01:54:19.958Z,40.45
2018-05-21T01:55:29.657Z,40.45
2018-05-21T01:56:39.081Z,40.45
2018-05-21T01:57:48.285Z,40.45
2018-05-21T01:58:57.768Z,40.45
2018-05-21T02:00:07.477Z,40.45
2018-05-21T02:01:17.197Z,40.45
2018-05-21T02:02:26.892Z,40.45
2018-05-21T02:03:35.836Z,40.45
2018-05-21T02:04:45.033Z,40.45
2018-05-21T02:05:54.512Z,40.45
2018-05-21T02:07:03.707Z,40.45
2018-05-21T02:08:13.242Z,40.36
2018-05-21T02:09:22.819Z,40.45
2018-05-21T02:10:32.273Z,40.55
2018-05-21T02:11:41.743Z,40.36
2018-05-21T02:12:51.184Z,40.45
2018-05-21T02:14:00.893Z,40.36
2018-05-21T02:15:10.168Z,40.36
2018-05-21T02:16:19.107Z,40.65
2018-05-21T02:17:28.283Z,40.36
2018-05-21T02:18:37.680Z,40.65
2018-05-21T02:19:47.430Z,40.65
2018-05-21T02:20:57.195Z,40.17
2018-05-21T02:22:07.135Z,40.65
2018-05-21T02:23:17.131Z,40.07
2018-05-21T02:24:26.333Z,40.07
2018-05-21T02:25:35.493Z,40.07
2018-05-21T02:26:44.720Z,40.17
2018-05-21T02:27:54.466Z,40.07
2018-05-21T02:29:03.635Z,39.69
2018-05-21T02:30:13.349Z,39.78
2018-05-21T02:31:23.045Z,39.69
2018-05-21T02:32:32.296Z,39.97
2018-05-21T02:33:41.471Z,40.07
2018-05-21T02:34:51.181Z,40.07
2018-05-21T02:36:00.382Z,39.97
2018-05-21T02:37:10.110Z,39.97
2018-05-21T02:38:19.520Z,39.69
2018-05-21T02:39:28.666Z,39.78
2018-05-21T02:40:38.363Z,39.87
2018-05-21T02:41:48.312Z,39.87
2018-05-21T02:42:57.507Z,39.97
2018-05-21T02:44:06.703Z,39.78
2018-05-21T02:45:16.172Z,39.59
2018-05-21T02:46:25.892Z,39.39
2018-05-21T02:47:35.323Z,39.49
2018-05-21T02:48:44.546Z,39.2
2018-05-21T02:49:53.948Z,39.59
2018-05-21T02:51:03.128Z,39.29
2018-05-21T02:52:12.550Z,39.69
2018-05-21T02:53:22.485Z,39.49
2018-05-21T02:54:32.169Z,39.39
2018-05-21T02:55:41.876Z,39.39
2018-05-21T02:56:51.281Z,39.49
2018-05-21T02:58:00.989Z,39.49
2018-05-21T02:59:10.449Z,39.49
2018-05-21T03:00:20.152Z,39.59
2018-05-21T03:01:29.601Z,39.59
2018-05-21T03:02:38.521Z,39.59
2018-05-21T03:03:47.462Z,39.49
2018-05-21T03:04:57.195Z,39.59
2018-05-21T03:06:06.390Z,39.59
2018-05-21T03:07:15.818Z,39.59
2018-05-21T03:08:25.002Z,39.69
2018-05-21T03:09:34.733Z,39.01
2018-05-21T03:10:43.925Z,39.01
2018-05-21T03:11:53.101Z,39.2
2018-05-21T03:13:02.782Z,39.11
2018-05-21T03:14:12.312Z,39.01
2018-05-21T03:15:21.486Z,39.01
2018-05-21T03:16:31.436Z,39.2
2018-05-21T03:17:40.603Z,38.91
2018-05-21T03:18:49.789Z,38.91
2018-05-21T03:19:59.013Z,39.01
2018-05-21T03:21:08.161Z,38.91
2018-05-21T03:22:17.333Z,39.11
2018-05-21T03:23:27.029Z,39.11
2018-05-21T03:24:36.209Z,39.39
2018-05-21T03:25:45.646Z,38.91
2018-05-21T03:26:55.126Z,39.29
2018-05-21T03:28:04.067Z,39.29
2018-05-21T03:29:13.266Z,39.39
2018-05-21T03:30:22.516Z,39.39
2018-05-21T03:31:32.250Z,39.49
2018-05-21T03:32:42.223Z,39.49
2018-05-21T03:33:51.940Z,39.39
2018-05-21T03:35:01.660Z,39.49
2018-05-21T03:36:10.830Z,39.39
2018-05-21T03:37:19.990Z,39.39
2018-05-21T03:38:29.665Z,39.39
2018-05-21T03:39:39.342Z,39.39
2018-05-21T03:40:49.534Z,39.39
2018-05-21T03:41:58.965Z,39.11
2018-05-21T03:43:08.412Z,38.91
2018-05-21T03:44:17.877Z,39.29
2018-05-21T03:45:27.317Z,39.01
2018-05-21T03:46:36.786Z,38.91
2018-05-21T03:47:45.956Z,38.91
2018-05-21T03:48:55.172Z,39.01
2018-05-21T03:50:04.863Z,38.81
2018-05-21T03:51:14.285Z,39.01
2018-05-21T03:52:24.005Z,39.01
2018-05-21T03:53:33.430Z,38.71
2018-05-21T03:54:42.859Z,38.71
2018-05-21T03:55:52.562Z,39.11
2018-05-21T03:57:02.002Z,39.01
2018-05-21T03:58:11.465Z,38.71
2018-05-21T03:59:20.907Z,38.81
2018-05-21T04:00:30.329Z,38.62
2018-05-21T04:01:39.789Z,38.62
2018-05-21T04:02:49.260Z,38.71
2018-05-21T04:03:58.436Z,38.53
2018-05-21T04:05:07.414Z,38.81
2018-05-21T04:06:16.615Z,38.71
2018-05-21T04:07:25.797Z,38.91
2018-05-21T04:08:35.249Z,38.53
2018-05-21T04:09:44.436Z,38.62
2018-05-21T04:10:53.350Z,38.62
2018-05-21T04:12:02.812Z,38.62
2018-05-21T04:13:12.302Z,38.71
2018-05-21T04:14:22.368Z,38.62
2018-05-21T04:15:32.069Z,38.53
2018-05-21T04:16:41.257Z,38.71
2018-05-21T04:17:49.907Z,38.62
2018-05-21T04:18:59.359Z,38.62
2018-05-21T04:20:09.040Z,38.43
2018-05-21T04:21:18.716Z,38.62
2018-05-21T04:22:28.141Z,38.7
2018-05-21T04:23:37.854Z,38.14
2018-05-21T04:24:47.286Z,38.23
2018-05-21T04:25:57.246Z,38.51
2018-05-21T04:27:06.386Z,38.33
2018-05-21T04:28:15.872Z,38.23
2018-05-21T04:29:25.551Z,38.41
2018-05-21T04:30:35.042Z,38.33
2018-05-21T04:31:44.009Z,38.31
2018-05-21T04:32:53.762Z,38.33
2018-05-21T04:34:03.012Z,38.31
2018-05-21T04:35:12.174Z,38.33
2018-05-21T04:36:22.033Z,38.21
2018-05-21T04:37:31.631Z,38.41
2018-05-21T04:38:41.332Z,38.31
2018-05-21T04:39:50.497Z,38.21
2018-05-21T04:40:59.704Z,38.6
2018-05-21T04:42:09.137Z,38.6
2018-05-21T04:43:18.565Z,38.51
2018-05-21T04:44:27.971Z,38.41
2018-05-21T04:45:37.164Z,38.31
2018-05-21T04:46:46.867Z,38.51
2018-05-21T04:47:56.570Z,38.21
2018-05-21T04:49:06.009Z,38.12
2018-05-21T04:50:15.467Z,38.12
2018-05-21T04:51:24.631Z,38.02
2018-05-21T04:52:33.781Z,38.02
2018-05-21T04:53:43.721Z,38.02
2018-05-21T04:54:53.148Z,37.83
2018-05-21T04:56:03.320Z,37.73
2018-05-21T04:57:12.262Z,37.73
2018-05-21T04:58:20.894Z,37.73
2018-05-21T04:59:30.071Z,37.73
2018-05-21T05:00:39.755Z,37.73
2018-05-21T05:01:49.463Z,37.73
2018-05-21T05:02:58.376Z,37.63
2018-05-21T05:04:07.809Z,37.63
2018-05-21T05:05:17.286Z,37.75
2018-05-21T05:06:26.458Z,37.83
2018-05-21T05:07:36.168Z,37.63
2018-05-21T05:08:45.596Z,37.83
2018-05-21T05:09:55.558Z,37.73
2018-05-21T05:11:04.992Z,37.83
2018-05-21T05:12:14.435Z,37.83
2018-05-21T05:13:24.125Z,37.83
2018-05-21T05:14:33.579Z,37.73
2018-05-21T05:15:42.470Z,37.73
2018-05-21T05:16:52.433Z,37.73
2018-05-21T05:18:01.586Z,37.73
2018-05-21T05:19:11.568Z,37.83
2018-05-21T05:20:20.999Z,37.83
2018-05-21T05:21:30.453Z,37.83
2018-05-21T05:22:39.656Z,37.83
2018-05-21T05:23:49.383Z,37.73
2018-05-21T05:24:59.068Z,37.93
2018-05-21T05:26:08.777Z,37.83
2018-05-21T05:27:18.490Z,37.83
2018-05-21T05:28:27.987Z,37.73
2018-05-21T05:29:37.421Z,37.93
2018-05-21T05:30:46.847Z,37.73
2018-05-21T05:31:56.041Z,37.73
2018-05-21T05:33:05.240Z,37.63
2018-05-21T05:34:14.693Z,37.73
2018-05-21T05:35:24.382Z,37.73
2018-05-21T05:36:33.806Z,37.63
2018-05-21T05:37:42.978Z,37.73
2018-05-21T05:38:52.844Z,37.63
2018-05-21T05:40:01.735Z,37.63
2018-05-21T05:41:10.895Z,37.63
2018-05-21T05:42:20.342Z,37.63
2018-05-21T05:43:29.506Z,37.63
2018-05-21T05:44:38.957Z,37.63
2018-05-21T05:45:47.920Z,37.35
2018-05-21T05:46:57.960Z,37.35
2018-05-21T05:48:06.967Z,37.25
2018-05-21T05:49:16.659Z,37.45
2018-05-21T05:50:26.332Z,37.35
2018-05-21T05:51:35.779Z,37.35
2018-05-21T05:52:45.208Z,37.25
2018-05-21T05:53:55.165Z,37.35
2018-05-21T05:55:04.350Z,37.25
2018-05-21T05:56:14.059Z,37.25
2018-05-21T05:57:23.233Z,37.25
2018-05-21T05:58:32.429Z,37.35
2018-05-21T05:59:41.650Z,37.25
2018-05-21T06:00:51.052Z,37.15
2018-05-21T06:02:01.049Z,37.25
2018-05-21T06:03:10.475Z,37.25
2018-05-21T06:04:19.905Z,37.25
2018-05-21T06:05:29.330Z,37.25
2018-05-21T06:06:39.028Z,37.25
2018-05-21T06:07:48.715Z,37.25
2018-05-21T06:08:58.711Z,37.06
2018-05-21T06:10:08.396Z,37.06
2018-05-21T06:11:17.909Z,37.06
2018-05-21T06:12:27.363Z,37.06
2018-05-21T06:13:36.883Z,37.06
2018-05-21T06:14:46.003Z,37.15
2018-05-21T06:15:55.186Z,37.06
2018-05-21T06:17:04.173Z,36.96
2018-05-21T06:18:13.872Z,36.96
2018-05-21T06:19:23.376Z,36.96
2018-05-21T06:20:33.155Z,37.15
2018-05-21T06:21:42.097Z,37.25
2018-05-21T06:22:51.292Z,36.87
2018-05-21T06:24:00.244Z,37.25
2018-05-21T06:25:09.447Z,36.96
2018-05-21T06:26:18.602Z,37.15
2018-05-21T06:27:27.757Z,37.15
2018-05-21T06:28:37.171Z,37.06
2018-05-21T06:29:46.332Z,37.15
2018-05-21T06:30:55.519Z,37.15
2018-05-21T06:32:04.200Z,37.15
2018-05-21T06:33:13.649Z,37.15
2018-05-21T06:34:22.985Z,37.15
2018-05-21T06:35:32.148Z,37.15
2018-05-21T06:36:41.632Z,37.15
2018-05-21T06:37:50.799Z,37.15
2018-05-21T06:39:00.253Z,36.87
2018-05-21T06:40:09.503Z,36.96
2018-05-21T06:41:19.469Z,37.25
2018-05-21T06:42:28.885Z,37.06
2018-05-21T06:43:38.111Z,37.25
2018-05-21T06:44:47.834Z,37.06
2018-05-21T06:45:57.286Z,37.15
2018-05-21T06:47:06.773Z,36.96
2018-05-21T06:48:15.958Z,36.98
2018-05-21T06:49:25.183Z,36.96
2018-05-21T06:50:34.637Z,37.06
2018-05-21T06:51:44.324Z,36.98
2018-05-21T06:52:53.258Z,36.98
2018-05-21T06:54:02.686Z,36.98
2018-05-21T06:55:12.113Z,36.79
2018-05-21T06:56:22.135Z,36.98
2018-05-21T06:57:32.120Z,36.79
2018-05-21T06:58:41.295Z,36.79
2018-05-21T06:59:50.752Z,36.69
2018-05-21T07:01:00.402Z,36.59
2018-05-21T07:02:09.318Z,36.98
2018-05-21T07:03:18.503Z,36.98
2018-05-21T07:04:28.303Z,36.69
2018-05-21T07:05:38.038Z,36.88
2018-05-21T07:06:47.997Z,36.79
2018-05-21T07:07:57.862Z,36.88
2018-05-21T07:09:07.709Z,36.79
2018-05-21T07:10:16.918Z,36.88
2018-05-21T07:11:26.081Z,36.88
2018-05-21T07:12:35.834Z,36.88
2018-05-21T07:13:45.772Z,36.79
2018-05-21T07:14:54.950Z,36.79
2018-05-21T07:16:04.936Z,36.69
2018-05-21T07:17:14.883Z,36.88
2018-05-21T07:18:24.896Z,36.88
2018-05-21T07:19:34.524Z,36.69
2018-05-21T07:20:44.516Z,36.79
2018-05-21T07:21:53.941Z,36.59
2018-05-21T07:23:04.369Z,36.69
2018-05-21T07:24:13.547Z,36.69
2018-05-21T07:25:23.032Z,36.69
2018-05-21T07:26:32.746Z,36.69
2018-05-21T07:27:42.310Z,36.69
2018-05-21T07:28:51.989Z,36.59
2018-05-21T07:30:01.412Z,36.69
2018-05-21T07:31:11.354Z,36.69
2018-05-21T07:32:20.776Z,36.79
2018-05-21T07:33:30.219Z,36.79
2018-05-21T07:34:39.711Z,36.69
2018-05-21T07:35:48.856Z,36.79
2018-05-21T07:36:58.303Z,36.69
2018-05-21T07:38:07.756Z,36.69
2018-05-21T07:39:16.673Z,36.59
2018-05-21T07:40:25.591Z,36.79
2018-05-21T07:41:34.787Z,36.79
2018-05-21T07:42:43.956Z,36.79
2018-05-21T07:43:53.378Z,36.59
2018-05-21T07:45:02.295Z,36.79
2018-05-21T07:46:11.464Z,36.59
2018-05-21T07:47:20.392Z,36.79
2018-05-21T07:48:29.843Z,36.79
2018-05-21T07:49:39.557Z,36.59
2018-05-21T07:50:49.227Z,36.79
2018-05-21T07:51:58.667Z,36.79
2018-05-21T07:53:07.883Z,36.69
2018-05-21T07:54:17.088Z,36.69
2018-05-21T07:55:26.922Z,36.79
2018-05-21T07:56:35.985Z,36.69
2018-05-21T07:57:45.690Z,36.69
2018-05-21T07:58:55.657Z,36.79
2018-05-21T08:00:05.116Z,36.79
2018-05-21T08:01:14.819Z,36.69
2018-05-21T08:02:24.019Z,36.79
2018-05-21T08:03:32.936Z,36.69
2018-05-21T08:04:42.124Z,36.79
2018-05-21T08:05:51.380Z,36.79
2018-05-21T08:07:01.103Z,36.69
2018-05-21T08:08:10.806Z,36.69
2018-05-21T08:09:20.384Z,36.71
2018-05-21T08:10:29.854Z,36.79
2018-05-21T08:11:39.116Z,36.79
2018-05-21T08:12:49.090Z,36.69
2018-05-21T08:13:59.352Z,36.69
2018-05-21T08:15:08.297Z,36.69
2018-05-21T08:16:17.383Z,36.69
2018-05-21T08:17:26.893Z,36.59
2018-05-21T08:18:36.634Z,36.59
2018-05-21T08:19:46.144Z,36.69
2018-05-21T08:20:55.584Z,36.59
2018-05-21T08:22:04.529Z,36.69
2018-05-21T08:23:14.439Z,36.69
2018-05-21T08:24:23.890Z,36.69
2018-05-21T08:25:33.583Z,36.59
2018-05-21T08:26:42.890Z,36.69
2018-05-21T08:27:52.593Z,36.79
2018-05-21T08:29:02.327Z,36.69
2018-05-21T08:30:12.260Z,36.59
2018-05-21T08:31:21.441Z,36.69
2018-05-21T08:32:31.173Z,36.8
2018-05-21T08:33:41.187Z,36.69
2018-05-21T08:34:50.131Z,36.69
2018-05-21T08:35:59.326Z,36.8
2018-05-21T08:37:08.493Z,36.9
2018-05-21T08:38:18.205Z,36.69
2018-05-21T08:39:27.175Z,36.79
2018-05-21T08:40:36.366Z,36.71
2018-05-21T08:41:45.841Z,36.69
2018-05-21T08:42:55.571Z,36.9
2018-05-21T08:44:05.007Z,36.8
2018-05-21T08:45:14.725Z,36.8
2018-05-21T08:46:23.918Z,36.79
2018-05-21T08:47:33.124Z,36.9
2018-05-21T08:48:43.315Z,36.9
2018-05-21T08:49:55.302Z,36.71
2018-05-21T08:51:04.572Z,36.8
2018-05-21T08:52:14.656Z,36.9
2018-05-21T08:53:24.406Z,36.8
2018-05-21T08:54:33.403Z,36.9
2018-05-21T08:55:42.877Z,36.79
2018-05-21T08:56:52.045Z,36.71
2018-05-21T08:58:00.992Z,36.71
2018-05-21T08:59:10.187Z,36.71
2018-05-21T09:00:20.136Z,36.71
2018-05-21T09:01:29.971Z,36.71
2018-05-21T09:02:38.910Z,36.8
2018-05-21T09:03:48.078Z,36.71
2018-05-21T09:04:58.094Z,36.9
2018-05-21T09:06:07.264Z,36.9
2018-05-21T09:07:16.968Z,36.9
2018-05-21T09:08:26.406Z,37
2018-05-21T09:09:36.338Z,37
2018-05-21T09:10:45.283Z,37
2018-05-21T09:11:54.991Z,36.9
2018-05-21T09:13:04.699Z,36.61
2018-05-21T09:14:14.392Z,37
2018-05-21T09:15:23.813Z,36.71
2018-05-21T09:16:33.679Z,36.61
2018-05-21T09:17:43.297Z,36.71
2018-05-21T09:18:53.230Z,36.61
2018-05-21T09:20:02.947Z,36.8
2018-05-21T09:21:12.556Z,36.8
2018-05-21T09:22:21.981Z,36.8
2018-05-21T09:23:31.164Z,36.71
2018-05-21T09:24:41.104Z,37
2018-05-21T09:25:50.559Z,36.8
2018-05-21T09:26:59.787Z,37
2018-05-21T09:28:09.220Z,36.8
2018-05-21T09:29:18.441Z,36.8
2018-05-21T09:30:27.905Z,36.9
2018-05-21T09:31:37.345Z,37.1
2018-05-21T09:32:47.052Z,36.9
2018-05-21T09:33:56.771Z,37
2018-05-21T09:35:06.801Z,36.9
2018-05-21T09:36:15.767Z,37.1
2018-05-21T09:37:24.819Z,37
2018-05-21T09:38:33.987Z,37
2018-05-21T09:39:43.463Z,37.1
2018-05-21T09:40:53.296Z,37.1
2018-05-21T09:42:02.372Z,37.1
2018-05-21T09:43:12.362Z,37
2018-05-21T09:44:21.265Z,37.19
2018-05-21T09:45:30.443Z,37.1
2018-05-21T09:46:39.878Z,37.19
2018-05-21T09:47:49.314Z,37
2018-05-21T09:48:58.814Z,37.1
2018-05-21T09:50:08.260Z,37.1
2018-05-21T09:51:17.944Z,37.1
2018-05-21T09:52:27.116Z,37.1
2018-05-21T09:53:36.543Z,37
2018-05-21T09:54:45.719Z,37.1
2018-05-21T09:55:55.413Z,37.1
2018-05-21T09:57:04.589Z,37.29
2018-05-21T09:58:13.495Z,36.9
2018-05-21T09:59:22.660Z,37.1
2018-05-21T10:00:32.088Z,37
2018-05-21T10:01:41.788Z,37.29
2018-05-21T10:02:51.472Z,37.29
2018-05-21T10:04:00.917Z,37.19
2018-05-21T10:05:10.087Z,37.19
2018-05-21T10:06:19.534Z,37.29
2018-05-21T10:07:29.239Z,37.1
2018-05-21T10:08:38.178Z,37.19
2018-05-21T10:09:47.348Z,37.19
2018-05-21T10:10:57.087Z,37
2018-05-21T10:12:07.243Z,37.19
2018-05-21T10:13:17.993Z,37.29
2018-05-21T10:14:28.621Z,37
2018-05-21T10:15:38.848Z,37
2018-05-21T10:16:48.985Z,36.9
2018-05-21T10:17:59.698Z,36.9
2018-05-21T10:19:09.931Z,37
2018-05-21T10:20:19.110Z,37
2018-05-21T10:21:28.567Z,37.29
2018-05-21T10:22:38.044Z,37.29
2018-05-21T10:23:46.729Z,37.1
2018-05-21T10:24:55.948Z,37.29
2018-05-21T10:26:06.064Z,37.29
2018-05-21T10:27:16.086Z,37.29
2018-05-21T10:28:25.328Z,37.29
2018-05-21T10:29:34.780Z,37.29
2018-05-21T10:30:44.183Z,37.29
2018-05-21T10:31:53.357Z,37.29
2018-05-21T10:33:03.340Z,37.29
2018-05-21T10:34:12.828Z,37.29
2018-05-21T10:35:22.526Z,37.29
2018-05-21T10:36:32.294Z,37.29
2018-05-21T10:37:41.514Z,37.29
2018-05-21T10:38:50.964Z,37.29
2018-05-21T10:40:00.402Z,37.29
2018-05-21T10:41:10.355Z,37.29
2018-05-21T10:42:20.754Z,37.29
2018-05-21T10:43:29.684Z,37.29
2018-05-21T10:44:38.750Z,37.29
2018-05-21T10:45:48.157Z,37.29
2018-05-21T10:46:57.377Z,37.38
2018-05-21T10:48:06.601Z,37.19
2018-05-21T10:49:16.149Z,37.19
2018-05-21T10:50:25.425Z,37.29
2018-05-21T10:51:34.957Z,37.29
2018-05-21T10:52:44.665Z,37.38
2018-05-21T10:53:54.164Z,37.38
2018-05-21T10:55:03.141Z,37.29
2018-05-21T10:56:12.910Z,37.29
2018-05-21T10:57:23.309Z,37.38
2018-05-21T10:58:33.291Z,37.38
2018-05-21T10:59:42.740Z,37.29
2018-05-21T11:00:52.710Z,37.38
2018-05-21T11:02:02.339Z,37.38
2018-05-21T11:03:12.127Z,37.29
2018-05-21T11:04:21.554Z,37.29
2018-05-21T11:05:31.258Z,37.48
2018-05-21T11:06:40.710Z,37.48
2018-05-21T11:07:49.915Z,37.38
2018-05-21T11:08:59.347Z,37.38
2018-05-21T11:10:08.534Z,37.29
2018-05-21T11:11:17.739Z,37.38
2018-05-21T11:12:27.704Z,37.48
2018-05-21T11:13:37.490Z,37.58
2018-05-21T11:14:47.434Z,37.58
2018-05-21T11:15:56.899Z,37.48
2018-05-21T11:17:06.595Z,37.7
2018-05-21T11:18:16.068Z,37.67
2018-05-21T11:19:25.524Z,37.67
2018-05-21T11:20:35.223Z,37.58
2018-05-21T11:21:44.653Z,37.7
2018-05-21T11:22:54.599Z,37.6
2018-05-21T11:24:04.113Z,37.58
2018-05-21T11:25:13.547Z,37.58
2018-05-21T11:26:23.266Z,37.58
2018-05-21T11:27:32.697Z,37.67
2018-05-21T11:28:41.865Z,37.67
2018-05-21T11:29:51.296Z,37.77
2018-05-21T11:31:00.722Z,37.77
2018-05-21T11:32:10.421Z,37.58
2018-05-21T11:33:20.101Z,37.58
2018-05-21T11:34:29.604Z,37.58
2018-05-21T11:35:39.279Z,37.77
2018-05-21T11:36:48.960Z,37.67
2018-05-21T11:37:58.385Z,37.67
2018-05-21T11:39:08.326Z,37.6
2018-05-21T11:40:17.759Z,37.67
2018-05-21T11:41:27.488Z,37.7
2018-05-21T11:42:36.918Z,37.6
2018-05-21T11:43:46.138Z,37.79
2018-05-21T11:44:55.569Z,37.7
2018-05-21T11:46:04.233Z,37.79
2018-05-21T11:47:13.744Z,37.58
2018-05-21T11:48:23.473Z,37.79
2018-05-21T11:49:33.443Z,37.7
2018-05-21T11:50:43.038Z,37.7
2018-05-21T11:51:52.945Z,37.67
2018-05-21T11:53:02.390Z,37.88
2018-05-21T11:54:11.571Z,37.88
2018-05-21T11:55:20.770Z,37.7
2018-05-21T11:56:30.234Z,37.67
2018-05-21T11:57:39.948Z,37.79
2018-05-21T11:58:49.682Z,37.79
2018-05-21T11:59:58.850Z,37.5
2018-05-21T12:01:08.439Z,37.77
2018-05-21T12:02:17.627Z,37.98
2018-05-21T12:03:27.116Z,37.88
2018-05-21T12:04:36.844Z,37.88
2018-05-21T12:05:45.785Z,37.98
2018-05-21T12:06:55.268Z,37.88
2018-05-21T12:08:04.227Z,37.79
2018-05-21T12:09:13.959Z,37.6
2018-05-21T12:10:23.163Z,37.79
2018-05-21T12:11:32.385Z,37.88
2018-05-21T12:12:42.049Z,37.5
2018-05-21T12:13:52.088Z,37.87
2018-05-21T12:15:01.281Z,37.6
2018-05-21T12:16:10.739Z,37.88
2018-05-21T12:17:19.480Z,37.88
2018-05-21T12:18:29.203Z,38.08
2018-05-21T12:19:38.910Z,37.79
2018-05-21T12:20:48.453Z,37.79
2018-05-21T12:21:58.164Z,37.6
2018-05-21T12:23:07.379Z,37.79
2018-05-21T12:24:17.292Z,37.79
2018-05-21T12:25:26.694Z,37.79
2018-05-21T12:26:36.188Z,37.7
2018-05-21T12:27:45.606Z,37.88
2018-05-21T12:28:54.786Z,37.88
2018-05-21T12:30:04.243Z,37.79
2018-05-21T12:31:13.956Z,37.79
2018-05-21T12:32:23.397Z,37.79
2018-05-21T12:33:32.316Z,37.7
2018-05-21T12:34:41.284Z,37.79
2018-05-21T12:35:50.827Z,37.7
2018-05-21T12:36:59.796Z,37.98
2018-05-21T12:38:09.235Z,37.88
2018-05-21T12:39:19.252Z,38.08
2018-05-21T12:40:28.705Z,37.98
2018-05-21T12:41:38.413Z,37.7
2018-05-21T12:42:47.866Z,37.98
2018-05-21T12:43:57.320Z,37.88
2018-05-21T12:45:06.560Z,37.7
2018-05-21T12:46:16.270Z,37.98
2018-05-21T12:47:25.461Z,37.88
2018-05-21T12:48:34.641Z,37.7
2018-05-21T12:49:43.903Z,37.7
2018-05-21T12:50:53.593Z,37.7
2018-05-21T12:52:02.767Z,37.79
2018-05-21T12:53:11.942Z,37.79
2018-05-21T12:54:20.931Z,37.88
2018-05-21T12:55:29.880Z,37.88
2018-05-21T12:56:39.353Z,37.7
2018-05-21T12:57:48.608Z,37.79
2018-05-21T12:58:58.293Z,37.79
2018-05-21T13:00:07.214Z,37.79
2018-05-21T13:01:16.148Z,37.7
2018-05-21T13:02:25.579Z,37.98
2018-05-21T13:03:35.014Z,37.88
2018-05-21T13:04:43.980Z,37.88
2018-05-21T13:05:53.153Z,37.79
2018-05-21T13:07:02.644Z,37.7
2018-05-21T13:08:12.091Z,37.79
2018-05-21T13:09:21.552Z,37.79
2018-05-21T13:10:30.495Z,37.79
2018-05-21T13:11:39.965Z,37.7
2018-05-21T13:12:49.458Z,37.7
2018-05-21T13:13:58.377Z,37.7
2018-05-21T13:15:08.125Z,37.7
2018-05-21T13:16:17.696Z,37.79
2018-05-21T13:17:27.179Z,37.7
2018-05-21T13:18:36.157Z,37.79
2018-05-21T13:19:45.585Z,37.7
2018-05-21T13:20:55.325Z,37.79
2018-05-21T13:22:05.038Z,37.7
2018-05-21T13:23:14.993Z,37.7
2018-05-21T13:24:24.587Z,37.79
2018-05-21T13:25:34.280Z,37.79
2018-05-21T13:26:43.735Z,37.7
2018-05-21T13:27:53.178Z,37.79
2018-05-21T13:29:02.100Z,37.7
2018-05-21T13:30:11.644Z,37.6
2018-05-21T13:31:21.391Z,37.79
2018-05-21T13:32:30.571Z,37.6
2018-05-21T13:33:40.048Z,37.7
2018-05-21T13:34:49.772Z,37.7
2018-05-21T13:35:58.957Z,37.7
2018-05-21T13:37:08.640Z,37.79
2018-05-21T13:38:17.849Z,37.7
2018-05-21T13:39:26.765Z,37.79
2018-05-21T13:40:35.968Z,37.79
2018-05-21T13:41:45.977Z,37.98
2018-05-21T13:42:55.159Z,37.79
2018-05-21T13:44:05.141Z,37.81
2018-05-21T13:45:15.094Z,37.9
2018-05-21T13:46:24.848Z,37.71
2018-05-21T13:47:34.555Z,37.79
2018-05-21T13:48:44.523Z,37.81
2018-05-21T13:49:53.962Z,38
2018-05-21T13:51:03.428Z,37.79
2018-05-21T13:52:13.240Z,37.71
2018-05-21T13:53:22.852Z,37.81
2018-05-21T13:54:32.291Z,37.79
2018-05-21T13:55:42.014Z,37.81
2018-05-21T13:56:51.477Z,37.71
2018-05-21T13:58:00.661Z,37.81
2018-05-21T13:59:09.581Z,37.71
2018-05-21T14:00:18.729Z,37.81
2018-05-21T14:01:27.920Z,37.9
2018-05-21T14:02:37.393Z,37.81
2018-05-21T14:03:46.348Z,37.9
2018-05-21T14:04:55.517Z,37.9
2018-05-21T14:06:05.201Z,37.81
2018-05-21T14:07:14.375Z,37.9
2018-05-21T14:08:23.517Z,37.98
2018-05-21T14:09:32.686Z,38
2018-05-21T14:10:42.621Z,38
2018-05-21T14:11:52.080Z,38.1
2018-05-21T14:13:01.513Z,38
2018-05-21T14:14:11.209Z,37.98
2018-05-21T14:15:21.156Z,37.9
2018-05-21T14:16:30.570Z,38
2018-05-21T14:17:40.254Z,37.79
2018-05-21T14:18:49.413Z,37.9
2018-05-21T14:19:58.831Z,38.2
2018-05-21T14:21:07.981Z,38.2
2018-05-21T14:22:17.151Z,38
2018-05-21T14:23:26.878Z,38.2
2018-05-21T14:24:36.301Z,37.9
2018-05-21T14:25:45.488Z,38.1
2018-05-21T14:26:54.703Z,38.1
2018-05-21T14:28:04.132Z,38
2018-05-21T14:29:13.321Z,38.1
2018-05-21T14:30:22.754Z,38.2
2018-05-21T14:31:32.160Z,38.2
2018-05-21T14:32:41.308Z,38.2
2018-05-21T14:33:50.995Z,38.2
2018-05-21T14:34:59.910Z,38.1
2018-05-21T14:36:09.368Z,38
2018-05-21T14:37:18.821Z,38
2018-05-21T14:38:28.578Z,38.2
2018-05-21T14:39:37.792Z,38.39
2018-05-21T14:40:47.484Z,38.2
2018-05-21T14:41:57.164Z,38.2
2018-05-21T14:43:06.875Z,38.1
2018-05-21T14:44:16.824Z,38.29
2018-05-21T14:45:26.035Z,38.39
2018-05-21T14:46:35.222Z,38.29
2018-05-21T14:47:44.665Z,38.29
2018-05-21T14:48:53.844Z,38.29
2018-05-21T14:50:03.822Z,38.58
2018-05-21T14:51:13.522Z,38.39
2018-05-21T14:52:23.206Z,38.39
2018-05-21T14:53:33.180Z,38.39
2018-05-21T14:54:42.952Z,38.39
2018-05-21T14:55:52.384Z,38.48
2018-05-21T14:57:01.333Z,38.48
2018-05-21T14:58:10.506Z,38.48
2018-05-21T14:59:19.994Z,38.48
2018-05-21T15:00:29.208Z,38.68
2018-05-21T15:01:38.668Z,38.48
2018-05-21T15:02:47.842Z,38.48